createdAt,value
2019-01-04T00:01:22.226Z,9.40
2019-01-04T00:04:23.926Z,11.27
2019-01-04T00:07:25.317Z,12.20
2019-01-04T00:10:26.828Z,12.00
2019-01-04T00:13:28.216Z,10.63
2019-01-04T00:16:29.840Z,11.03
2019-01-04T00:19:31.426Z,11.27
2019-01-04T00:22:33.053Z,12.53
2019-01-04T00:25:34.437Z,12.23
2019-01-04T00:28:35.967Z,12.13
2019-01-04T00:31:38.448Z,11.53
2019-01-04T00:34:40.207Z,10.73
2019-01-04T00:37:41.687Z,10.47
2019-01-04T00:40:43.210Z,12.73
2019-01-04T00:43:44.594Z,9.33
2019-01-04T00:46:46.114Z,12.23
2019-01-04T00:49:47.498Z,12.27
2019-01-04T00:52:49.124Z,9.80
2019-01-04T00:56:08.097Z,10.03
2019-01-04T00:59:41.796Z,10.77
2019-01-04T01:02:54.313Z,9.90
2019-01-04T01:06:36.626Z,9.63
2019-01-04T01:10:15.689Z,9.97
2019-01-04T01:13:37.486Z,9.13
2019-01-04T01:16:56.184Z,9.67
2019-01-04T01:20:27.704Z,6.93
2019-01-04T01:24:14.544Z,9.13
2019-01-04T01:27:54.887Z,8.70
2019-01-04T01:31:23.434Z,8.33
2019-01-04T01:34:48.377Z,9.40
2019-01-04T01:37:55.888Z,7.37
2019-01-04T01:41:38.593Z,9.10
2019-01-04T01:45:23.992Z,8.53
2019-01-04T01:48:29.867Z,8.00
2019-01-04T01:51:39.777Z,8.33
2019-01-04T01:54:41.341Z,9.07
2019-01-04T01:57:42.736Z,7.80
2019-01-04T02:00:45.376Z,8.60
2019-01-04T02:03:46.760Z,8.43
2019-01-04T02:06:48.287Z,8.60
2019-01-04T02:09:50.008Z,8.40
2019-01-04T02:12:51.600Z,8.93
2019-01-04T02:15:52.993Z,9.83
2019-01-04T02:18:54.508Z,10.27
2019-01-04T02:21:55.897Z,11.37
2019-01-04T02:24:57.563Z,9.93
2019-01-04T02:27:59.003Z,9.47
2019-01-04T02:31:00.522Z,8.50
2019-01-04T02:34:01.941Z,9.10
2019-01-04T02:37:03.430Z,9.37
2019-01-04T02:40:05.458Z,8.67
2019-01-04T02:43:07.022Z,10.00
2019-01-04T02:46:08.398Z,8.13
2019-01-04T02:49:09.960Z,8.60
2019-01-04T02:52:11.352Z,9.00
2019-01-04T02:55:12.970Z,8.73
2019-01-04T02:58:14.364Z,10.50
2019-01-04T03:01:16.081Z,9.07
2019-01-04T03:04:17.464Z,9.40
2019-01-04T03:07:18.991Z,10.40
2019-01-04T03:10:20.554Z,9.97
2019-01-04T03:13:22.100Z,9.17
2019-01-04T03:16:23.768Z,9.13
2019-01-04T03:19:25.314Z,9.83
2019-01-04T03:22:26.705Z,9.60
2019-01-04T03:25:28.223Z,10.13
2019-01-04T03:28:29.605Z,9.20
2019-01-04T03:31:31.127Z,8.70
2019-01-04T03:34:32.508Z,8.60
2019-01-04T03:37:34.033Z,9.80
2019-01-04T03:40:35.550Z,10.20
2019-01-04T03:43:37.049Z,11.53
2019-01-04T03:46:38.442Z,11.57
2019-01-04T03:49:39.952Z,11.73
2019-01-04T03:52:41.337Z,12.03
2019-01-04T03:55:42.857Z,12.00
2019-01-04T03:58:44.253Z,11.93
2019-01-04T04:01:46.074Z,12.80
2019-01-04T04:04:47.458Z,13.40
2019-01-04T04:07:48.979Z,9.47
2019-01-04T04:10:50.594Z,10.37
2019-01-04T04:13:52.095Z,9.67
2019-01-04T04:16:53.480Z,11.30
2019-01-04T04:19:54.998Z,12.43
2019-01-04T04:22:56.393Z,10.73
2019-01-04T04:25:57.903Z,8.33
2019-01-04T04:28:59.397Z,13.03
2019-01-04T04:32:00.909Z,12.03
2019-01-04T04:35:04.000Z,12.50
2019-01-04T04:38:05.564Z,11.73
2019-01-04T04:41:07.178Z,11.27
2019-01-04T04:44:08.674Z,12.63
2019-01-04T04:47:10.062Z,11.03
2019-01-04T04:50:11.786Z,10.50
2019-01-04T04:53:13.176Z,11.23
2019-01-04T04:56:14.690Z,10.13
2019-01-04T04:59:16.097Z,11.27
2019-01-04T05:02:17.802Z,11.70
2019-01-04T05:05:19.191Z,10.67
2019-01-04T05:08:20.810Z,11.80
2019-01-04T05:11:22.324Z,11.30
2019-01-04T05:14:23.816Z,11.07
2019-01-04T05:17:25.208Z,10.37
2019-01-04T05:20:26.726Z,10.67
2019-01-04T05:23:28.116Z,11.83
2019-01-04T05:26:29.630Z,11.80
2019-01-04T05:29:31.021Z,12.33
2019-01-04T05:32:32.495Z,12.83
2019-01-04T05:35:33.883Z,11.17
2019-01-04T05:38:35.451Z,11.87
2019-01-04T05:41:36.962Z,16.70
2019-01-04T05:44:38.456Z,16.03
2019-01-04T05:47:39.848Z,15.00
2019-01-04T05:50:41.361Z,15.20
2019-01-04T05:53:42.745Z,16.33
2019-01-04T05:56:44.273Z,18.83
2019-01-04T05:59:45.665Z,22.07
2019-01-04T06:02:47.384Z,20.33
2019-01-04T06:05:48.775Z,26.33
2019-01-04T06:08:50.287Z,24.87
2019-01-04T06:11:51.908Z,21.37
2019-01-04T06:14:53.601Z,19.93
2019-01-04T06:17:54.989Z,16.70
2019-01-04T06:20:56.522Z,14.43
2019-01-04T06:23:57.904Z,17.03
2019-01-04T06:26:59.425Z,18.67
2019-01-04T06:30:00.917Z,15.00
2019-01-04T06:33:02.430Z,17.17
2019-01-04T06:36:03.819Z,22.60
2019-01-04T06:39:06.363Z,20.50
2019-01-04T06:42:08.178Z,24.77
2019-01-04T06:45:09.773Z,22.07
2019-01-04T06:48:11.166Z,23.73
2019-01-04T06:51:12.644Z,24.40
2019-01-04T06:54:19.745Z,21.37
2019-01-04T06:57:21.322Z,24.53
2019-01-04T07:00:22.717Z,24.40
2019-01-04T07:03:24.434Z,22.47
2019-01-04T07:06:25.824Z,21.77
2019-01-04T07:09:27.346Z,22.50
2019-01-04T07:12:28.965Z,25.17
2019-01-04T07:15:30.557Z,24.73
2019-01-04T07:18:31.955Z,27.27
2019-01-04T07:21:33.460Z,21.27
2019-01-04T07:24:34.861Z,18.30
2019-01-04T07:27:36.365Z,21.13
2019-01-04T07:30:37.760Z,23.93
2019-01-04T07:33:39.316Z,19.50
2019-01-04T07:36:40.705Z,21.07
2019-01-04T07:39:42.284Z,25.27
2019-01-04T07:42:43.788Z,28.47
2019-01-04T07:45:45.287Z,26.40
2019-01-04T07:48:46.674Z,24.87
2019-01-04T07:51:48.201Z,26.27
2019-01-04T07:54:49.590Z,21.90
2019-01-04T07:57:51.109Z,29.67
2019-01-04T08:00:52.518Z,26.67
2019-01-04T08:03:54.209Z,25.53
2019-01-04T08:06:55.592Z,29.47
2019-01-04T08:09:57.121Z,26.73
2019-01-04T08:12:58.822Z,27.13
2019-01-04T08:16:00.337Z,26.37
2019-01-04T08:19:01.731Z,26.90
2019-01-04T08:22:03.251Z,30.27
2019-01-04T08:25:06.450Z,19.50
2019-01-04T08:28:08.034Z,18.50
2019-01-04T08:31:09.441Z,20.90
2019-01-04T08:34:11.004Z,30.23
2019-01-04T08:37:12.397Z,24.93
2019-01-04T08:40:14.013Z,27.73
2019-01-04T08:43:15.927Z,33.10
2019-01-04T08:46:17.399Z,24.33
2019-01-04T08:49:18.787Z,32.97
2019-01-04T08:52:20.340Z,33.87
2019-01-04T08:55:21.830Z,27.57
2019-01-04T08:58:23.344Z,21.57
2019-01-04T09:01:24.741Z,26.30
2019-01-04T09:04:27.320Z,27.67
2019-01-04T09:07:28.706Z,25.47
2019-01-04T09:10:30.175Z,24.67
2019-01-04T09:13:31.699Z,25.77
2019-01-04T09:16:33.196Z,29.63
2019-01-04T09:19:34.588Z,24.07
2019-01-04T09:22:36.202Z,21.20
2019-01-04T09:25:37.599Z,21.23
2019-01-04T09:28:39.105Z,24.93
2019-01-04T09:31:40.601Z,21.40
2019-01-04T09:34:42.114Z,19.60
2019-01-04T09:37:43.610Z,20.23
2019-01-04T09:40:45.125Z,21.93
2019-01-04T09:43:46.640Z,22.67
2019-01-04T09:46:48.129Z,29.00
2019-01-04T09:49:49.520Z,30.13
2019-01-04T09:52:51.049Z,25.30
2019-01-04T09:55:52.438Z,24.53
2019-01-04T09:58:53.949Z,25.47
2019-01-04T10:01:55.444Z,29.67
2019-01-04T10:04:57.284Z,27.80
2019-01-04T10:07:58.668Z,22.60
2019-01-04T10:11:00.185Z,22.77
2019-01-04T10:14:01.685Z,21.97
2019-01-04T10:17:03.260Z,22.23
2019-01-04T10:20:08.363Z,25.17
2019-01-04T10:23:09.930Z,27.33
2019-01-04T10:26:12.417Z,26.77
2019-01-04T10:29:13.908Z,25.13
2019-01-04T10:32:15.306Z,26.87
2019-01-04T10:35:16.817Z,21.23
2019-01-04T10:38:18.208Z,23.87
2019-01-04T10:41:19.725Z,37.53
2019-01-04T10:44:21.340Z,21.97
2019-01-04T10:47:22.833Z,33.37
2019-01-04T10:50:24.229Z,24.30
2019-01-04T10:53:25.740Z,19.57
2019-01-04T10:56:27.133Z,31.67
2019-01-04T10:59:28.645Z,28.00
2019-01-04T11:02:30.039Z,29.27
2019-01-04T11:05:32.118Z,31.83
2019-01-04T11:08:33.505Z,28.73
2019-01-04T11:11:35.071Z,29.30
2019-01-04T11:14:36.690Z,32.07
2019-01-04T11:17:38.224Z,23.97
2019-01-04T11:20:42.317Z,30.67
2019-01-04T11:23:57.919Z,31.20
2019-01-04T11:26:59.476Z,33.47
2019-01-04T11:30:15.849Z,40.23
2019-01-04T11:33:17.557Z,43.87
2019-01-04T11:36:46.503Z,49.57
2019-01-04T11:40:17.895Z,34.87
2019-01-04T11:43:55.249Z,39.03
2019-01-04T11:47:26.337Z,35.03
2019-01-04T11:50:57.642Z,35.63
2019-01-04T11:53:59.835Z,35.13
2019-01-04T11:57:01.378Z,35.50
2019-01-04T12:00:09.394Z,27.43
2019-01-04T12:03:11.041Z,29.80
2019-01-04T12:06:13.362Z,32.77
2019-01-04T12:09:14.853Z,29.00
2019-01-04T12:12:16.387Z,21.27
2019-01-04T12:15:17.882Z,23.70
2019-01-04T12:18:19.407Z,23.47
2019-01-04T12:21:20.893Z,27.07
2019-01-04T12:24:22.389Z,20.67
2019-01-04T12:27:23.917Z,26.37
2019-01-04T12:30:25.330Z,24.33
2019-01-04T12:33:26.909Z,28.47
2019-01-04T12:36:28.400Z,25.67
2019-01-04T12:39:30.021Z,25.27
2019-01-04T12:42:31.410Z,42.37
2019-01-04T12:45:32.877Z,27.53
2019-01-04T12:48:34.450Z,31.07
2019-01-04T12:51:35.937Z,19.30
2019-01-04T12:54:37.329Z,33.93
2019-01-04T12:57:39.036Z,24.67
2019-01-04T13:00:40.431Z,22.60
2019-01-04T13:03:41.956Z,23.83
2019-01-04T13:06:43.438Z,26.43
2019-01-04T13:09:44.992Z,17.27
2019-01-04T13:12:46.382Z,21.80
2019-01-04T13:15:48.008Z,15.27
2019-01-04T13:18:49.605Z,21.20
2019-01-04T13:21:51.291Z,23.53
2019-01-04T13:24:52.682Z,23.37
2019-01-04T13:27:54.159Z,23.97
2019-01-04T13:30:55.544Z,18.00
2019-01-04T13:33:57.107Z,21.03
2019-01-04T13:36:58.501Z,27.97
2019-01-04T13:40:00.019Z,18.90
2019-01-04T13:43:01.509Z,18.03
2019-01-04T13:46:03.025Z,22.57
2019-01-04T13:49:04.638Z,22.27
2019-01-04T13:52:06.129Z,18.77
2019-01-04T13:55:07.541Z,14.57
2019-01-04T13:58:09.274Z,18.63
2019-01-04T14:01:10.674Z,25.07
2019-01-04T14:04:12.145Z,24.87
2019-01-04T14:07:13.645Z,23.37
2019-01-04T14:10:15.156Z,19.83
2019-01-04T14:13:16.554Z,19.33
2019-01-04T14:16:19.190Z,20.00
2019-01-04T14:19:21.025Z,21.37
2019-01-04T14:22:22.548Z,19.43
2019-01-04T14:25:24.009Z,20.93
2019-01-04T14:28:25.617Z,21.57
2019-01-04T14:31:27.101Z,21.90
2019-01-04T14:34:30.576Z,20.90
2019-01-04T14:37:31.967Z,17.70
2019-01-04T14:40:33.582Z,16.97
2019-01-04T14:43:34.976Z,16.63
2019-01-04T14:46:36.850Z,19.93
2019-01-04T14:49:38.418Z,16.27
2019-01-04T14:52:40.829Z,17.77
2019-01-04T14:55:42.227Z,11.93
2019-01-04T14:58:43.701Z,15.33
2019-01-04T15:01:45.101Z,14.33
2019-01-04T15:04:46.641Z,14.10
2019-01-04T15:07:48.144Z,14.77
2019-01-04T15:10:49.628Z,14.83
2019-01-04T15:13:51.017Z,13.27
2019-01-04T15:16:52.561Z,16.23
2019-01-04T15:19:54.070Z,15.40
2019-01-04T15:22:55.873Z,21.90
2019-01-04T15:25:57.269Z,19.63
2019-01-04T15:28:58.793Z,21.87
2019-01-04T15:32:00.182Z,21.83
2019-01-04T15:35:01.790Z,27.77
2019-01-04T15:38:03.381Z,25.30
2019-01-04T15:41:04.938Z,27.57
2019-01-04T15:44:06.430Z,23.17
2019-01-04T15:47:08.019Z,29.57
2019-01-04T15:50:09.639Z,28.03
2019-01-04T15:53:11.129Z,33.03
2019-01-04T15:56:12.606Z,30.80
2019-01-04T15:59:14.089Z,28.27
2019-01-04T16:02:15.486Z,27.23
2019-01-04T16:05:17.144Z,24.50
2019-01-04T16:08:18.648Z,28.23
2019-01-04T16:11:20.156Z,26.83
2019-01-04T16:14:21.550Z,20.43
2019-01-04T16:17:23.021Z,25.10
2019-01-04T16:20:24.798Z,23.07
2019-01-04T16:23:26.381Z,22.80
2019-01-04T16:26:27.773Z,22.57
2019-01-04T16:29:29.247Z,26.10
2019-01-04T16:32:30.737Z,30.47
2019-01-04T16:35:32.398Z,30.87
2019-01-04T16:38:33.789Z,24.93
2019-01-04T16:41:35.373Z,29.40
2019-01-04T16:44:37.051Z,28.77
2019-01-04T16:47:39.136Z,25.73
2019-01-04T16:50:40.747Z,28.93
2019-01-04T16:53:42.350Z,28.17
2019-01-04T16:56:45.157Z,29.93
2019-01-04T16:59:46.793Z,27.93
2019-01-04T17:02:48.183Z,27.13
2019-01-04T17:05:49.807Z,28.80
2019-01-04T17:08:54.829Z,28.67
2019-01-04T17:11:56.559Z,25.17
2019-01-04T17:14:58.055Z,27.60
2019-01-04T17:17:59.525Z,26.93
2019-01-04T17:21:01.233Z,28.23
2019-01-04T17:24:03.845Z,32.57
2019-01-04T17:27:05.233Z,27.77
2019-01-04T17:30:08.494Z,30.60
2019-01-04T17:33:09.887Z,30.43
2019-01-04T17:36:11.504Z,32.27
2019-01-04T17:39:12.991Z,32.13
2019-01-04T17:42:14.513Z,31.47
2019-01-04T17:45:15.904Z,32.47
2019-01-04T17:48:17.522Z,34.57
2019-01-04T17:51:19.144Z,42.63
2019-01-04T17:54:20.737Z,44.47
2019-01-04T17:57:22.125Z,50.67
2019-01-04T18:00:23.740Z,51.63
2019-01-04T18:03:25.244Z,50.13
2019-01-04T18:06:26.821Z,51.10
2019-01-04T18:09:29.196Z,50.43
2019-01-04T18:12:30.787Z,53.00
2019-01-04T18:15:32.274Z,42.03
2019-01-04T18:18:33.840Z,42.03
2019-01-04T18:21:35.418Z,41.17
2019-01-04T18:24:37.012Z,42.67
2019-01-04T18:27:38.405Z,41.67
2019-01-04T18:30:39.916Z,41.87
2019-01-04T18:33:42.578Z,35.37
2019-01-04T18:36:44.138Z,29.97
2019-01-04T18:39:45.527Z,24.70
2019-01-04T18:42:47.063Z,34.57
2019-01-04T18:45:48.450Z,27.93
2019-01-04T18:48:49.979Z,31.50
2019-01-04T18:51:51.498Z,26.40
2019-01-04T18:54:53.077Z,29.80
2019-01-04T18:57:54.471Z,24.47
2019-01-04T19:00:55.988Z,25.73
2019-01-04T19:03:57.402Z,33.43
2019-01-04T19:06:58.900Z,28.70
2019-01-04T19:10:01.419Z,29.03
2019-01-04T19:13:03.346Z,26.17
2019-01-04T19:16:04.935Z,23.80
2019-01-04T19:19:06.549Z,24.30
2019-01-04T19:22:08.457Z,25.17
2019-01-04T19:25:10.036Z,27.17
2019-01-04T19:28:11.422Z,30.53
2019-01-04T19:31:13.091Z,32.87
2019-01-04T19:34:14.579Z,25.33
2019-01-04T19:37:16.199Z,24.03
2019-01-04T19:40:17.591Z,22.53
2019-01-04T19:43:19.211Z,25.27
2019-01-04T19:46:20.594Z,22.67
2019-01-04T19:49:22.109Z,27.37
2019-01-04T19:52:23.712Z,22.33
2019-01-04T19:55:25.587Z,22.80
2019-01-04T19:58:27.069Z,23.53
2019-01-04T20:01:28.647Z,23.40
2019-01-04T20:04:30.148Z,21.73
2019-01-04T20:08:00.476Z,25.53
2019-01-04T20:11:25.898Z,21.33
2019-01-04T20:15:02.513Z,21.53
2019-01-04T20:18:29.231Z,23.73
2019-01-04T20:21:41.930Z,25.73
2019-01-04T20:24:52.264Z,24.07
2019-01-04T20:28:12.543Z,23.17
2019-01-04T20:31:21.566Z,23.37
2019-01-04T20:34:36.956Z,28.60
2019-01-04T20:37:50.524Z,22.43
2019-01-04T20:41:10.685Z,23.87
2019-01-04T20:44:13.985Z,22.77
2019-01-04T20:47:33.857Z,24.10
2019-01-04T20:50:43.305Z,28.03
2019-01-04T20:53:48.025Z,20.60
2019-01-04T20:56:57.522Z,19.90
2019-01-04T21:00:17.294Z,21.67
2019-01-04T21:03:26.490Z,23.23
2019-01-04T21:06:46.397Z,22.00
2019-01-04T21:10:01.470Z,23.00
2019-01-04T21:13:12.034Z,24.60
2019-01-04T21:16:18.347Z,24.33
2019-01-04T21:19:23.307Z,24.53
2019-01-04T21:22:35.658Z,21.33
2019-01-04T21:25:39.049Z,16.33
2019-01-04T21:28:57.417Z,20.77
2019-01-04T21:32:16.041Z,18.00
2019-01-04T21:35:35.855Z,23.10
2019-01-04T21:38:57.865Z,22.80
2019-01-04T21:42:07.271Z,22.03
2019-01-04T21:45:08.847Z,21.17
2019-01-04T21:48:28.421Z,17.43
2019-01-04T21:51:32.641Z,16.77
2019-01-04T21:54:39.759Z,15.37
2019-01-04T21:57:46.814Z,15.57
2019-01-04T22:00:50.224Z,20.60
2019-01-04T22:03:54.639Z,21.40
2019-01-04T22:07:14.698Z,21.90
2019-01-04T22:10:20.989Z,16.47
2019-01-04T22:13:30.953Z,19.40
2019-01-04T22:16:34.605Z,16.87
2019-01-04T22:19:38.565Z,20.07
2019-01-04T22:22:59.070Z,16.83
2019-01-04T22:26:18.891Z,20.90
2019-01-04T22:29:27.907Z,22.80
2019-01-04T22:32:41.526Z,16.87
2019-01-04T22:35:44.915Z,16.00
2019-01-04T22:39:04.821Z,16.90
2019-01-04T22:42:11.915Z,17.10
2019-01-04T22:45:24.040Z,17.47
2019-01-04T22:48:37.717Z,15.90
2019-01-04T22:51:46.897Z,19.50
2019-01-04T22:54:55.950Z,18.03
2019-01-04T22:58:15.689Z,19.80
2019-01-04T23:01:27.732Z,16.67
2019-01-04T23:04:36.935Z,17.27
2019-01-04T23:07:56.796Z,19.27
2019-01-04T23:11:02.718Z,22.63
2019-01-04T23:14:22.954Z,15.53
2019-01-04T23:17:28.912Z,20.50
2019-01-04T23:20:44.185Z,20.87
2019-01-04T23:23:59.698Z,19.83
2019-01-04T23:27:19.863Z,18.67
2019-01-04T23:30:35.025Z,20.00
2019-01-04T23:33:38.440Z,22.77
2019-01-04T23:36:53.581Z,17.43
2019-01-04T23:40:13.396Z,21.33
2019-01-04T23:43:33.149Z,15.30
2019-01-04T23:46:42.627Z,17.53
2019-01-04T23:49:54.865Z,19.63
2019-01-04T23:53:07.541Z,16.27
2019-01-04T23:56:27.659Z,24.03
2019-01-04T23:59:31.029Z,21.13
